sensor_id;sensor_type;location;lat;lon;timestamp;pressure;altitude;pressure_sealevel;temperature;humidity
72548;BME280;60570;50.848;6.776;2023-12-04T00:00:00;100399.84;;;5.06;62.81
72548;BME280;60570;50.848;6.776;2023-12-04T00:01:02;100401.78;;;5.05;62.80
72548;BME280;60570;50.848;6.776;2023-12-04T00:02:03;100386.41;;;5.04;62.59
72548;BME280;60570;50.848;6.776;2023-12-04T00:03:04;100383.94;;;5.03;62.47
72548;BME280;60570;50.848;6.776;2023-12-04T00:04:06;100393.00;;;5.03;62.91
72548;BME280;60570;50.848;6.776;2023-12-04T00:05:07;100381.19;;;5.03;62.38
72548;BME280;60570;50.848;6.776;2023-12-04T00:06:10;100381.72;;;5.05;62.98
72548;BME280;60570;50.848;6.776;2023-12-04T00:07:11;100379.47;;;5.07;62.74
72548;BME280;60570;50.848;6.776;2023-12-04T00:08:12;100376.72;;;5.07;62.30
72548;BME280;60570;50.848;6.776;2023-12-04T00:09:13;100375.06;;;5.06;62.50
72548;BME280;60570;50.848;6.776;2023-12-04T00:10:15;100373.97;;;5.07;62.63
72548;BME280;60570;50.848;6.776;2023-12-04T00:11:15;100369.56;;;5.06;62.70
72548;BME280;60570;50.848;6.776;2023-12-04T00:12:18;100364.38;;;5.04;62.27
72548;BME280;60570;50.848;6.776;2023-12-04T00:13:19;100363.84;;;5.02;62.37
72548;BME280;60570;50.848;6.776;2023-12-04T00:14:20;100371.28;;;5.02;62.57
72548;BME280;60570;50.848;6.776;2023-12-04T00:15:21;100358.34;;;5.02;62.59
72548;BME280;60570;50.848;6.776;2023-12-04T00:16:22;100364.38;;;5.04;62.56
72548;BME280;60570;50.848;6.776;2023-12-04T00:17:23;100359.19;;;5.03;62.81
72548;BME280;60570;50.848;6.776;2023-12-04T00:18:24;100357.53;;;5.02;62.86
72548;BME280;60570;50.848;6.776;2023-12-04T00:19:26;100363.66;;;4.99;62.44
72548;BME280;60570;50.848;6.776;2023-12-04T00:20:26;100366.09;;;5.00;62.73
72548;BME280;60570;50.848;6.776;2023-12-04T00:21:28;100361.72;;;4.99;62.62
72548;BME280;60570;50.848;6.776;2023-12-04T00:22:29;100365.78;;;5.02;62.72
72548;BME280;60570;50.848;6.776;2023-12-04T00:23:31;100356.69;;;5.01;62.82
72548;BME280;60570;50.848;6.776;2023-12-04T00:24:32;100359.19;;;5.03;62.40
72548;BME280;60570;50.848;6.776;2023-12-04T00:25:33;100360.28;;;5.02;62.32
72548;BME280;60570;50.848;6.776;2023-12-04T00:26:34;100361.94;;;5.03;62.48
72548;BME280;60570;50.848;6.776;2023-12-04T00:27:37;100358.34;;;5.02;62.69
72548;BME280;60570;50.848;6.776;2023-12-04T00:28:38;100358.34;;;5.02;62.55
72548;BME280;60570;50.848;6.776;2023-12-04T00:29:39;100355.91;;;5.01;62.79
72548;BME280;60570;50.848;6.776;2023-12-04T00:30:41;100355.59;;;5.02;62.63
72548;BME280;60570;50.848;6.776;2023-12-04T00:31:43;100349.28;;;5.02;62.20
72548;BME280;60570;50.848;6.776;2023-12-04T00:32:43;100351.72;;;5.03;62.36
72548;BME280;60570;50.848;6.776;2023-12-04T00:33:45;100343.75;;;5.02;62.54
72548;BME280;60570;50.848;6.776;2023-12-04T00:34:46;100342.94;;;5.01;62.36
72548;BME280;60570;50.848;6.776;2023-12-04T00:35:48;100344.06;;;5.00;62.48
72548;BME280;60570;50.848;6.776;2023-12-04T00:36:48;100344.91;;;5.01;62.39
72548;BME280;60570;50.848;6.776;2023-12-04T00:37:50;100347.66;;;5.01;62.64
72548;BME280;60570;50.848;6.776;2023-12-04T00:38:51;100343.25;;;5.00;62.86
72548;BME280;60570;50.848;6.776;2023-12-04T00:39:52;100345.69;;;5.01;62.62
72548;BME280;60570;50.848;6.776;2023-12-04T00:40:53;100339.41;;;5.01;62.27
72548;BME280;60570;50.848;6.776;2023-12-04T00:41:55;100336.63;;;5.01;62.22
72548;BME280;60570;50.848;6.776;2023-12-04T00:42:57;100335.31;;;4.98;62.59
72548;BME280;60570;50.848;6.776;2023-12-04T00:43:59;100331.72;;;4.98;62.30
72548;BME280;60570;50.848;6.776;2023-12-04T00:44:59;100327.34;;;4.97;62.38
72548;BME280;60570;50.848;6.776;2023-12-04T00:46:01;100326.53;;;4.96;62.36
72548;BME280;60570;50.848;6.776;2023-12-04T00:47:02;100325.44;;;4.97;62.45
72548;BME280;60570;50.848;6.776;2023-12-04T00:48:04;100318.78;;;4.98;62.75
72548;BME280;60570;50.848;6.776;2023-12-04T00:49:05;100320.44;;;4.99;62.29
72548;BME280;60570;50.848;6.776;2023-12-04T00:50:07;100325.94;;;4.99;62.18
72548;BME280;60570;50.848;6.776;2023-12-04T00:51:08;100321.75;;;5.02;62.25
72548;BME280;60570;50.848;6.776;2023-12-04T00:52:10;100323.19;;;4.99;62.38
72548;BME280;60570;50.848;6.776;2023-12-04T00:53:10;100318.78;;;4.98;62.71
72548;BME280;60570;50.848;6.776;2023-12-04T00:54:12;100321.84;;;4.97;62.31
72548;BME280;60570;50.848;6.776;2023-12-04T00:55:13;100317.44;;;4.96;62.48
72548;BME280;60570;50.848;6.776;2023-12-04T00:56:14;100320.72;;;4.98;62.25
72548;BME280;60570;50.848;6.776;2023-12-04T00:57:15;100324.59;;;4.97;62.31
72548;BME280;60570;50.848;6.776;2023-12-04T00:58:17;100324.91;;;4.95;62.44
72548;BME280;60570;50.848;6.776;2023-12-04T00:59:19;100312.78;;;4.96;62.40
72548;BME280;60570;50.848;6.776;2023-12-04T01:00:20;100309.19;;;4.96;62.60
72548;BME280;60570;50.848;6.776;2023-12-04T01:01:21;100311.66;;;4.97;62.33
72548;BME280;60570;50.848;6.776;2023-12-04T01:02:22;100319.91;;;4.97;62.49
72548;BME280;60570;50.848;6.776;2023-12-04T01:03:24;100319.09;;;4.97;62.34
72548;BME280;60570;50.848;6.776;2023-12-04T01:04:26;100316.34;;;4.97;62.32
72548;BME280;60570;50.848;6.776;2023-12-04T01:05:28;100313.38;;;4.93;62.32
72548;BME280;60570;50.848;6.776;2023-12-04T01:06:29;100312.78;;;4.96;62.68
72548;BME280;60570;50.848;6.776;2023-12-04T01:07:30;100314.19;;;4.94;62.77
72548;BME280;60570;50.848;6.776;2023-12-04T01:08:31;100314.69;;;4.96;62.75
72548;BME280;60570;50.848;6.776;2023-12-04T01:09:34;100315.84;;;4.95;62.72
72548;BME280;60570;50.848;6.776;2023-12-04T01:10:35;100305.94;;;4.94;62.86
72548;BME280;60570;50.848;6.776;2023-12-04T01:11:37;100300.41;;;4.94;62.37
72548;BME280;60570;50.848;6.776;2023-12-04T01:12:37;100297.41;;;4.95;62.74
72548;BME280;60570;50.848;6.776;2023-12-04T01:13:40;100301.25;;;4.94;62.72
72548;BME280;60570;50.848;6.776;2023-12-04T01:14:41;100303.19;;;4.94;62.37
72548;BME280;60570;50.848;6.776;2023-12-04T01:15:42;100298.50;;;4.94;62.81
72548;BME280;60570;50.848;6.776;2023-12-04T01:16:45;100304.00;;;4.94;62.72
72548;BME280;60570;50.848;6.776;2023-12-04T01:17:47;100301.25;;;4.94;62.82
72548;BME280;60570;50.848;6.776;2023-12-04T01:18:47;100293.81;;;4.95;62.69
72548;BME280;60570;50.848;6.776;2023-12-04T01:19:49;100293.81;;;4.95;62.72
72548;BME280;60570;50.848;6.776;2023-12-04T01:20:50;100289.41;;;4.94;62.75
72548;BME280;60570;50.848;6.776;2023-12-04T01:21:51;100293.00;;;4.94;62.49
72548;BME280;60570;50.848;6.776;2023-12-04T01:22:53;100293.81;;;4.95;62.37
72548;BME280;60570;50.848;6.776;2023-12-04T01:23:55;100297.41;;;4.95;62.49
72548;BME280;60570;50.848;6.776;2023-12-04T01:24:55;100297.41;;;4.95;62.46
72548;BME280;60570;50.848;6.776;2023-12-04T01:25:57;100293.31;;;4.93;62.29
72548;BME280;60570;50.848;6.776;2023-12-04T01:26:58;100298.50;;;4.94;62.49
72548;BME280;60570;50.848;6.776;2023-12-04T01:28:00;100293.81;;;4.95;62.71
72548;BME280;60570;50.848;6.776;2023-12-04T01:29:02;100288.31;;;4.95;62.26
72548;BME280;60570;50.848;6.776;2023-12-04T01:30:05;100288.81;;;4.97;62.71
72548;BME280;60570;50.848;6.776;2023-12-04T01:31:06;100289.34;;;4.99;62.28
72548;BME280;60570;50.848;6.776;2023-12-04T01:32:07;100288.50;;;4.98;62.25
72548;BME280;60570;50.848;6.776;2023-12-04T01:33:08;100281.41;;;4.97;62.56
72548;BME280;60570;50.848;6.776;2023-12-04T01:34:10;100282.81;;;4.95;62.27
72548;BME280;60570;50.848;6.776;2023-12-04T01:35:11;100280.06;;;4.95;62.57
72548;BME280;60570;50.848;6.776;2023-12-04T01:36:13;100287.69;;;4.98;62.26
72548;BME280;60570;50.848;6.776;2023-12-04T01:37:14;100284.44;;;4.96;62.18
72548;BME280;60570;50.848;6.776;2023-12-04T01:38:15;100287.19;;;4.96;62.19
72548;BME280;60570;50.848;6.776;2023-12-04T01:39:16;100286.91;;;4.97;62.20
72548;BME280;60570;50.848;6.776;2023-12-04T01:40:18;100279.75;;;4.96;62.22
72548;BME280;60570;50.848;6.776;2023-12-04T01:41:18;100280.56;;;4.97;62.46
72548;BME280;60570;50.848;6.776;2023-12-04T01:42:20;100277.81;;;4.97;62.26
72548;BME280;60570;50.848;6.776;2023-12-04T01:43:21;100273.13;;;4.97;62.14
72548;BME280;60570;50.848;6.776;2023-12-04T01:44:24;100273.41;;;4.96;62.33
72548;BME280;60570;50.848;6.776;2023-12-04T01:45:24;100271.50;;;4.96;62.38
72548;BME280;60570;50.848;6.776;2023-12-04T01:46:26;100272.63;;;4.95;62.25
72548;BME280;60570;50.848;6.776;2023-12-04T01:47:27;100275.88;;;4.97;62.14
72548;BME280;60570;50.848;6.776;2023-12-04T01:48:29;100276.69;;;4.98;62.31
72548;BME280;60570;50.848;6.776;2023-12-04T01:49:31;100272.31;;;4.97;62.33
72548;BME280;60570;50.848;6.776;2023-12-04T01:50:33;100275.56;;;4.99;62.56
72548;BME280;60570;50.848;6.776;2023-12-04T01:51:35;100273.66;;;4.99;62.15
72548;BME280;60570;50.848;6.776;2023-12-04T01:52:36;100271.69;;;5.00;62.13
72548;BME280;60570;50.848;6.776;2023-12-04T01:53:39;100271.69;;;5.00;62.12
72548;BME280;60570;50.848;6.776;2023-12-04T01:54:40;100261.50;;;5.00;62.15
72548;BME280;60570;50.848;6.776;2023-12-04T01:55:42;100269.44;;;5.02;62.18
72548;BME280;60570;50.848;6.776;2023-12-04T01:56:43;100262.31;;;5.01;62.44
72548;BME280;60570;50.848;6.776;2023-12-04T01:57:45;100263.44;;;5.00;62.03
72548;BME280;60570;50.848;6.776;2023-12-04T01:58:47;100257.94;;;5.00;62.23
72548;BME280;60570;50.848;6.776;2023-12-04T01:59:50;100259.88;;;4.99;62.17
72548;BME280;60570;50.848;6.776;2023-12-04T02:00:51;100259.06;;;4.99;62.31
72548;BME280;60570;50.848;6.776;2023-12-04T02:01:53;100253.56;;;4.99;62.42
72548;BME280;60570;50.848;6.776;2023-12-04T02:02:53;100252.75;;;4.98;62.29
72548;BME280;60570;50.848;6.776;2023-12-04T02:03:54;100253.56;;;4.99;62.47
72548;BME280;60570;50.848;6.776;2023-12-04T02:04:56;100249.16;;;4.98;62.45
72548;BME280;60570;50.848;6.776;2023-12-04T02:05:59;100248.06;;;4.99;62.15
72548;BME280;60570;50.848;6.776;2023-12-04T02:07:00;100248.56;;;5.01;62.28
72548;BME280;60570;50.848;6.776;2023-12-04T02:08:02;100249.66;;;5.00;62.22
72548;BME280;60570;50.848;6.776;2023-12-04T02:09:04;100253.25;;;5.00;62.30
72548;BME280;60570;50.848;6.776;2023-12-04T02:10:07;100251.31;;;5.01;61.83
72548;BME280;60570;50.848;6.776;2023-12-04T02:11:09;100256.31;;;4.99;62.18
72548;BME280;60570;50.848;6.776;2023-12-04T02:12:11;100246.72;;;4.96;62.08
72548;BME280;60570;50.848;6.776;2023-12-04T02:13:12;100248.97;;;4.94;62.04
72548;BME280;60570;50.848;6.776;2023-12-04T02:14:14;100253.88;;;4.97;62.03
72548;BME280;60570;50.848;6.776;2023-12-04T02:15:16;100249.16;;;4.98;62.41
72548;BME280;60570;50.848;6.776;2023-12-04T02:16:18;100243.66;;;4.98;62.01
72548;BME280;60570;50.848;6.776;2023-12-04T02:17:20;100244.78;;;4.97;62.03
72548;BME280;60570;50.848;6.776;2023-12-04T02:18:24;100247.22;;;4.98;62.19
72548;BME280;60570;50.848;6.776;2023-12-04T02:19:25;100246.72;;;4.96;62.33
72548;BME280;60570;50.848;6.776;2023-12-04T02:20:31;100242.34;;;4.95;61.98
72548;BME280;60570;50.848;6.776;2023-12-04T02:21:32;100242.34;;;4.95;62.44
72548;BME280;60570;50.848;6.776;2023-12-04T02:22:33;100241.53;;;4.95;62.00
72548;BME280;60570;50.848;6.776;2023-12-04T02:23:34;100245.09;;;4.95;62.11
72548;BME280;60570;50.848;6.776;2023-12-04T02:24:37;100236.03;;;4.95;62.30
72548;BME280;60570;50.848;6.776;2023-12-04T02:25:38;100240.69;;;4.94;62.38
72548;BME280;60570;50.848;6.776;2023-12-04T02:26:44;100238.25;;;4.93;62.16
72548;BME280;60570;50.848;6.776;2023-12-04T02:27:50;100234.09;;;4.95;62.56
72548;BME280;60570;50.848;6.776;2023-12-04T02:28:55;100233.28;;;4.95;62.06
72548;BME280;60570;50.848;6.776;2023-12-04T02:29:59;100225.84;;;4.95;62.35
72548;BME280;60570;50.848;6.776;2023-12-04T02:31:03;100240.41;;;4.96;62.00
72548;BME280;60570;50.848;6.776;2023-12-04T02:32:06;100230.53;;;4.95;62.22
72548;BME280;60570;50.848;6.776;2023-12-04T02:33:10;100229.38;;;4.96;62.05
72548;BME280;60570;50.848;6.776;2023-12-04T02:34:14;100228.09;;;4.93;62.35
72548;BME280;60570;50.848;6.776;2023-12-04T02:35:19;100224.19;;;4.94;61.87
72548;BME280;60570;50.848;6.776;2023-12-04T02:36:22;100226.63;;;4.96;62.23
72548;BME280;60570;50.848;6.776;2023-12-04T02:37:26;100237.94;;;4.94;62.18
72548;BME280;60570;50.848;6.776;2023-12-04T02:38:28;100225.31;;;4.93;62.00
72548;BME280;60570;50.848;6.776;2023-12-04T02:39:29;100230.00;;;4.93;61.85
72548;BME280;60570;50.848;6.776;2023-12-04T02:40:32;100223.16;;;4.90;61.89
72548;BME280;60570;50.848;6.776;2023-12-04T02:41:33;100221.56;;;4.89;62.19
72548;BME280;60570;50.848;6.776;2023-12-04T02:42:35;100223.16;;;4.90;62.39
72548;BME280;60570;50.848;6.776;2023-12-04T02:43:35;100224.00;;;4.91;61.94
72548;BME280;60570;50.848;6.776;2023-12-04T02:44:37;100216.56;;;4.91;62.10
72548;BME280;60570;50.848;6.776;2023-12-04T02:45:38;100216.56;;;4.91;62.28
72548;BME280;60570;50.848;6.776;2023-12-04T02:46:39;100221.25;;;4.91;62.28
72548;BME280;60570;50.848;6.776;2023-12-04T02:47:40;100220.41;;;4.90;61.88
72548;BME280;60570;50.848;6.776;2023-12-04T02:48:41;100214.09;;;4.90;62.39
72548;BME280;60570;50.848;6.776;2023-12-04T02:49:42;100223.16;;;4.90;62.27
72548;BME280;60570;50.848;6.776;2023-12-04T02:50:44;100218.81;;;4.89;61.83
72548;BME280;60570;50.848;6.776;2023-12-04T02:51:45;100219.59;;;4.90;62.07
72548;BME280;60570;50.848;6.776;2023-12-04T02:52:46;100216.06;;;4.89;61.91
72548;BME280;60570;50.848;6.776;2023-12-04T02:53:47;100210.22;;;4.91;62.28
72548;BME280;60570;50.848;6.776;2023-12-04T02:54:49;100215.72;;;4.91;62.01
72548;BME280;60570;50.848;6.776;2023-12-04T02:55:51;100217.97;;;4.89;61.79
72548;BME280;60570;50.848;6.776;2023-12-04T02:56:52;100210.53;;;4.89;61.81
72548;BME280;60570;50.848;6.776;2023-12-04T02:57:53;100210.53;;;4.89;62.23
72548;BME280;60570;50.848;6.776;2023-12-04T02:58:55;100209.72;;;4.89;61.72
72548;BME280;60570;50.848;6.776;2023-12-04T02:59:55;100212.16;;;4.90;61.90
72548;BME280;60570;50.848;6.776;2023-12-04T03:00:57;100207.47;;;4.91;62.00
72548;BME280;60570;50.848;6.776;2023-12-04T03:01:58;100208.59;;;4.90;61.82
72548;BME280;60570;50.848;6.776;2023-12-04T03:02:58;100205.03;;;4.89;62.17
72548;BME280;60570;50.848;6.776;2023-12-04T03:04:00;100199.53;;;4.89;62.28
72548;BME280;60570;50.848;6.776;2023-12-04T03:05:01;100192.38;;;4.88;62.15
72548;BME280;60570;50.848;6.776;2023-12-04T03:06:03;100196.78;;;4.89;61.72
72548;BME280;60570;50.848;6.776;2023-12-04T03:07:03;100194.03;;;4.89;61.90
72548;BME280;60570;50.848;6.776;2023-12-04T03:08:04;100195.34;;;4.92;62.05
72548;BME280;60570;50.848;6.776;2023-12-04T03:09:06;100195.34;;;4.92;61.72
72548;BME280;60570;50.848;6.776;2023-12-04T03:10:07;100189.03;;;4.91;61.77
72548;BME280;60570;50.848;6.776;2023-12-04T03:11:11;100183.81;;;4.90;62.13
72548;BME280;60570;50.848;6.776;2023-12-04T03:12:11;100181.88;;;4.90;61.69
72548;BME280;60570;50.848;6.776;2023-12-04T03:13:12;100187.72;;;4.89;61.87
72548;BME280;60570;50.848;6.776;2023-12-04T03:14:14;100184.13;;;4.88;61.79
72548;BME280;60570;50.848;6.776;2023-12-04T03:15:15;100183.81;;;4.90;62.16
72548;BME280;60570;50.848;6.776;2023-12-04T03:16:16;100181.06;;;4.90;61.52
72548;BME280;60570;50.848;6.776;2023-12-04T03:17:17;100178.81;;;4.92;62.01
72548;BME280;60570;50.848;6.776;2023-12-04T03:18:19;100172.81;;;4.90;61.87
72548;BME280;60570;50.848;6.776;2023-12-04T03:19:20;100185.97;;;4.93;62.00
72548;BME280;60570;50.848;6.776;2023-12-04T03:20:21;100181.28;;;4.93;61.67
72548;BME280;60570;50.848;6.776;2023-12-04T03:21:22;100180.47;;;4.93;61.82
72548;BME280;60570;50.848;6.776;2023-12-04T03:22:24;100175.28;;;4.91;61.99
72548;BME280;60570;50.848;6.776;2023-12-04T03:23:26;100175.88;;;4.88;62.11
72548;BME280;60570;50.848;6.776;2023-12-04T03:24:26;100178.63;;;4.88;61.70
72548;BME280;60570;50.848;6.776;2023-12-04T03:25:28;100173.13;;;4.88;61.70
72548;BME280;60570;50.848;6.776;2023-12-04T03:26:30;100171.19;;;4.89;62.02
72548;BME280;60570;50.848;6.776;2023-12-04T03:27:32;100166.81;;;4.88;61.63
72548;BME280;60570;50.848;6.776;2023-12-04T03:28:33;100163.56;;;4.86;61.91
72548;BME280;60570;50.848;6.776;2023-12-04T03:29:34;100158.84;;;4.86;61.55
72548;BME280;60570;50.848;6.776;2023-12-04T03:30:35;100160.81;;;4.86;62.04
72548;BME280;60570;50.848;6.776;2023-12-04T03:31:38;100158.66;;;4.83;62.17
72548;BME280;60570;50.848;6.776;2023-12-04T03:32:39;100150.41;;;4.83;62.21
72548;BME280;60570;50.848;6.776;2023-12-04T03:33:41;100149.81;;;4.86;61.69
72548;BME280;60570;50.848;6.776;2023-12-04T03:34:41;100150.91;;;4.85;61.96
72548;BME280;60570;50.848;6.776;2023-12-04T03:35:43;100155.59;;;4.84;61.91
72548;BME280;60570;50.848;6.776;2023-12-04T03:36:44;100148.69;;;4.87;61.71
72548;BME280;60570;50.848;6.776;2023-12-04T03:37:46;100143.16;;;4.87;61.80
72548;BME280;60570;50.848;6.776;2023-12-04T03:38:46;100145.72;;;4.83;61.71
72548;BME280;60570;50.848;6.776;2023-12-04T03:39:50;100142.16;;;4.83;61.71
72548;BME280;60570;50.848;6.776;2023-12-04T03:40:51;100143.78;;;4.84;62.14
72548;BME280;60570;50.848;6.776;2023-12-04T03:41:54;100151.22;;;4.83;62.05
72548;BME280;60570;50.848;6.776;2023-12-04T03:42:55;100151.22;;;4.83;61.88
72548;BME280;60570;50.848;6.776;2023-12-04T03:43:56;100148.16;;;4.85;61.64
72548;BME280;60570;50.848;6.776;2023-12-04T03:44:57;100145.41;;;4.85;61.72
72548;BME280;60570;50.848;6.776;2023-12-04T03:45:59;100149.31;;;4.84;61.73
72548;BME280;60570;50.848;6.776;2023-12-04T03:46:59;100145.41;;;4.85;61.84
72548;BME280;60570;50.848;6.776;2023-12-04T03:48:01;100148.47;;;4.83;61.56
72548;BME280;60570;50.848;6.776;2023-12-04T03:49:02;100149.31;;;4.84;62.12
72548;BME280;60570;50.848;6.776;2023-12-04T03:50:05;100143.78;;;4.84;61.89
72548;BME280;60570;50.848;6.776;2023-12-04T03:51:06;100136.34;;;4.84;62.03
72548;BME280;60570;50.848;6.776;2023-12-04T03:52:07;100141.84;;;4.84;61.81
72548;BME280;60570;50.848;6.776;2023-12-04T03:53:08;100144.91;;;4.83;62.03
72548;BME280;60570;50.848;6.776;2023-12-04T03:54:09;100146.56;;;4.84;61.89
72548;BME280;60570;50.848;6.776;2023-12-04T03:55:11;100150.41;;;4.83;62.09
72548;BME280;60570;50.848;6.776;2023-12-04T03:56:12;100142.16;;;4.83;61.69
72548;BME280;60570;50.848;6.776;2023-12-04T03:57:15;100139.41;;;4.83;62.08
72548;BME280;60570;50.848;6.776;2023-12-04T03:58:16;100136.66;;;4.83;61.55
72548;BME280;60570;50.848;6.776;2023-12-04T03:59:17;100138.56;;;4.82;61.55
72548;BME280;60570;50.848;6.776;2023-12-04T04:00:19;100132.78;;;4.84;61.79
72548;BME280;60570;50.848;6.776;2023-12-04T04:01:20;100138.81;;;4.86;61.50
72548;BME280;60570;50.848;6.776;2023-12-04T04:02:21;100136.06;;;4.86;61.85
72548;BME280;60570;50.848;6.776;2023-12-04T04:03:23;100130.22;;;4.87;61.46
72548;BME280;60570;50.848;6.776;2023-12-04T04:04:23;100133.31;;;4.86;61.49
72548;BME280;60570;50.848;6.776;2023-12-04T04:05:25;100125.03;;;4.86;61.89
72548;BME280;60570;50.848;6.776;2023-12-04T04:06:25;100126.97;;;4.85;61.43
72548;BME280;60570;50.848;6.776;2023-12-04T04:07:27;100123.41;;;4.85;61.56
72548;BME280;60570;50.848;6.776;2023-12-04T04:08:28;100124.53;;;4.84;61.79
72548;BME280;60570;50.848;6.776;2023-12-04T04:09:29;100128.91;;;4.85;61.88
72548;BME280;60570;50.848;6.776;2023-12-04T04:10:30;100122.06;;;4.82;61.88
72548;BME280;60570;50.848;6.776;2023-12-04T04:11:32;100120.13;;;4.83;61.50
72548;BME280;60570;50.848;6.776;2023-12-04T04:12:34;100116.28;;;4.84;61.85
72548;BME280;60570;50.848;6.776;2023-12-04T04:13:36;100112.72;;;4.83;61.44
72548;BME280;60570;50.848;6.776;2023-12-04T04:14:37;100104.78;;;4.82;61.92
72548;BME280;60570;50.848;6.776;2023-12-04T04:15:38;100104.78;;;4.82;61.42
72548;BME280;60570;50.848;6.776;2023-12-04T04:16:39;100115.78;;;4.82;61.52
72548;BME280;60570;50.848;6.776;2023-12-04T04:17:41;100103.63;;;4.83;61.81
72548;BME280;60570;50.848;6.776;2023-12-04T04:18:42;100105.56;;;4.82;61.36
72548;BME280;60570;50.848;6.776;2023-12-04T04:19:44;100099.28;;;4.82;61.42
72548;BME280;60570;50.848;6.776;2023-12-04T04:20:44;100097.31;;;4.82;61.79
72548;BME280;60570;50.848;6.776;2023-12-04T04:21:46;100098.13;;;4.83;61.36
72548;BME280;60570;50.848;6.776;2023-12-04T04:22:47;100097.31;;;4.82;61.54
72548;BME280;60570;50.848;6.776;2023-12-04T04:23:49;100099.56;;;4.80;61.80
72548;BME280;60570;50.848;6.776;2023-12-04T04:24:50;100096.00;;;4.80;61.38
72548;BME280;60570;50.848;6.776;2023-12-04T04:25:52;100088.53;;;4.80;61.65
72548;BME280;60570;50.848;6.776;2023-12-04T04:26:52;100099.88;;;4.79;61.59
72548;BME280;60570;50.848;6.776;2023-12-04T04:27:54;100086.94;;;4.79;61.44
72548;BME280;60570;50.848;6.776;2023-12-04T04:28:56;100093.25;;;4.80;61.80
72548;BME280;60570;50.848;6.776;2023-12-04T04:29:57;100095.19;;;4.79;61.36
72548;BME280;60570;50.848;6.776;2023-12-04T04:30:58;100087.25;;;4.78;61.78
72548;BME280;60570;50.848;6.776;2023-12-04T04:31:59;100089.69;;;4.79;61.79
72548;BME280;60570;50.848;6.776;2023-12-04T04:33:00;100088.53;;;4.80;61.37
72548;BME280;60570;50.848;6.776;2023-12-04T04:34:01;100091.63;;;4.79;61.52
72548;BME280;60570;50.848;6.776;2023-12-04T04:35:04;100089.69;;;4.79;61.31
72548;BME280;60570;50.848;6.776;2023-12-04T04:36:05;100095.50;;;4.78;61.50
72548;BME280;60570;50.848;6.776;2023-12-04T04:37:07;100092.44;;;4.79;61.71
72548;BME280;60570;50.848;6.776;2023-12-04T04:38:08;100096.00;;;4.80;61.72
72548;BME280;60570;50.848;6.776;2023-12-04T04:39:11;100089.69;;;4.79;61.69
72548;BME280;60570;50.848;6.776;2023-12-04T04:40:12;100085.00;;;4.80;61.43
72548;BME280;60570;50.848;6.776;2023-12-04T04:41:14;100086.94;;;4.79;61.11
72548;BME280;60570;50.848;6.776;2023-12-04T04:42:15;100096.28;;;4.78;61.13
72548;BME280;60570;50.848;6.776;2023-12-04T04:43:18;100091.09;;;4.77;61.55
72548;BME280;60570;50.848;6.776;2023-12-04T04:44:19;100091.09;;;4.77;61.21
72548;BME280;60570;50.848;6.776;2023-12-04T04:45:20;100087.84;;;4.75;61.26
72548;BME280;60570;50.848;6.776;2023-12-04T04:46:21;100090.28;;;4.76;61.63
72548;BME280;60570;50.848;6.776;2023-12-04T04:47:23;100094.47;;;4.74;61.79
72548;BME280;60570;50.848;6.776;2023-12-04T04:48:23;100083.47;;;4.74;61.30
72548;BME280;60570;50.848;6.776;2023-12-04T04:49:25;100082.34;;;4.75;61.26
72548;BME280;60570;50.848;6.776;2023-12-04T04:50:26;100090.59;;;4.75;61.33
72548;BME280;60570;50.848;6.776;2023-12-04T04:51:28;100082.34;;;4.75;61.70
72548;BME280;60570;50.848;6.776;2023-12-04T04:52:29;100082.66;;;4.73;61.27
72548;BME280;60570;50.848;6.776;2023-12-04T04:53:31;100077.47;;;4.72;61.58
72548;BME280;60570;50.848;6.776;2023-12-04T04:54:32;100080.22;;;4.72;61.31
72548;BME280;60570;50.848;6.776;2023-12-04T04:55:33;100077.97;;;4.74;61.33
72548;BME280;60570;50.848;6.776;2023-12-04T04:56:34;100074.41;;;4.73;61.23
72548;BME280;60570;50.848;6.776;2023-12-04T04:57:35;100076.00;;;4.74;61.62
72548;BME280;60570;50.848;6.776;2023-12-04T04:58:38;100089.78;;;4.74;61.34
72548;BME280;60570;50.848;6.776;2023-12-04T04:59:39;100078.25;;;4.72;61.69
72548;BME280;60570;50.848;6.776;2023-12-04T05:00:40;100084.06;;;4.71;61.49
72548;BME280;60570;50.848;6.776;2023-12-04T05:01:41;100081.00;;;4.72;61.55
72548;BME280;60570;50.848;6.776;2023-12-04T05:02:42;100081.50;;;4.74;61.43
72548;BME280;60570;50.848;6.776;2023-12-04T05:03:43;100081.22;;;4.76;61.43
72548;BME280;60570;50.848;6.776;2023-12-04T05:04:44;100078.78;;;4.74;61.36
72548;BME280;60570;50.848;6.776;2023-12-04T05:05:45;100077.97;;;4.74;61.31
72548;BME280;60570;50.848;6.776;2023-12-04T05:06:47;100077.97;;;4.74;61.55
72548;BME280;60570;50.848;6.776;2023-12-04T05:07:47;100071.66;;;4.73;61.53
72548;BME280;60570;50.848;6.776;2023-12-04T05:08:49;100072.75;;;4.72;61.48
72548;BME280;60570;50.848;6.776;2023-12-04T05:09:52;100070.81;;;4.73;61.32
72548;BME280;60570;50.848;6.776;2023-12-04T05:10:54;100067.88;;;4.69;61.75
72548;BME280;60570;50.848;6.776;2023-12-04T05:11:54;100071.97;;;4.72;61.21
72548;BME280;60570;50.848;6.776;2023-12-04T05:12:56;100076.00;;;4.74;61.15
72548;BME280;60570;50.848;6.776;2023-12-04T05:13:58;100076.34;;;4.73;61.22
72548;BME280;60570;50.848;6.776;2023-12-04T05:15:00;100072.47;;;4.74;61.38
72548;BME280;60570;50.848;6.776;2023-12-04T05:16:00;100078.78;;;4.74;61.31
72548;BME280;60570;50.848;6.776;2023-12-04T05:17:02;100068.91;;;4.73;61.30
72548;BME280;60570;50.848;6.776;2023-12-04T05:18:03;100062.38;;;4.69;61.59
72548;BME280;60570;50.848;6.776;2023-12-04T05:19:05;100075.03;;;4.70;61.17
72548;BME280;60570;50.848;6.776;2023-12-04T05:20:07;100074.41;;;4.73;61.22
72548;BME280;60570;50.848;6.776;2023-12-04T05:21:09;100063.72;;;4.72;61.22
72548;BME280;60570;50.848;6.776;2023-12-04T05:22:10;100071.34;;;4.75;61.25
72548;BME280;60570;50.848;6.776;2023-12-04T05:23:11;100068.91;;;4.73;61.07
72548;BME280;60570;50.848;6.776;2023-12-04T05:24:12;100069.53;;;4.70;61.12
72548;BME280;60570;50.848;6.776;2023-12-04T05:25:14;100071.16;;;4.71;61.31